Time;durP1;ratioP1;P1;durP2;ratioP2;P2;SDS_P1;SDS_P2;PMS_P1;PMS_P2;Temp;Humidity;BMP_temperature;BMP_pressure;BME280_temperature;BME280_humidity;BME280_pressure;Samples;Min_cycle;Max_cycle;Signal;HPM_P1;HPM_P2
2021/05/11 00:01:48;;;;;;;29.60;27.50;;;;;;;;;;5028460;28;20415;-83
2021/05/11 00:04:16;;;;;;;31.37;29.17;;;;;;;;;;5031941;28;20515;-83
2021/05/11 00:06:45;;;;;;;29.90;27.37;;;;;;;;;;5030731;28;20458;-82
2021/05/11 00:09:13;;;;;;;28.23;26.13;;;;;;;;;;5030559;28;20467;-82
2021/05/11 00:11:40;;;;;;;31.07;28.87;;;;;;;;;;5009828;28;20443;-82
2021/05/11 00:14:07;;;;;;;30.23;27.90;;;;;;;;;;5023301;28;20402;-83
2021/05/11 00:16:34;;;;;;;31.57;29.27;;;;;;;;;;5012339;28;20423;-82
2021/05/11 00:19:04;;;;;;;29.70;27.70;;;;;;;;;;5024157;28;20526;-83
2021/05/11 00:21:35;;;;;;;33.57;31.13;;;;;;;;;;5024853;28;20942;-82
2021/05/11 00:24:04;;;;;;;36.17;33.20;;;;;;;;;;5022939;28;20953;-82
2021/05/11 00:26:32;;;;;;;38.43;35.20;;;;;;;;;;5025424;28;20469;-83
2021/05/11 00:29:00;;;;;;;38.43;34.73;;;;;;;;;;5029477;28;20429;-82
2021/05/11 00:31:27;;;;;;;35.73;32.60;;;;;;;;;;5038112;28;20456;-82
2021/05/11 00:33:54;;;;;;;35.87;33.03;;;;;;;;;;5032598;28;20425;-83
2021/05/11 00:36:22;;;;;;;36.97;34.17;;;;;;;;;;5027572;28;20458;-83
2021/05/11 00:38:49;;;;;;;35.73;33.03;;;;;;;;;;5031158;28;20433;-82
2021/05/11 00:41:17;;;;;;;37.10;33.77;;;;;;;;;;5027924;28;20430;-82
2021/05/11 00:43:45;;;;;;;37.93;34.70;;;;;;;;;;5026249;28;20443;-83
2021/05/11 00:46:14;;;;;;;36.47;33.77;;;;;;;;;;5011462;28;20512;-82
2021/05/11 00:48:42;;;;;;;34.90;32.07;;;;;;;;;;5026164;28;20442;-82
2021/05/11 00:51:10;;;;;;;35.13;32.53;;;;;;;;;;5029212;28;20454;-83
2021/05/11 00:53:44;;;;;;;33.67;31.13;;;;;;;;;;5021842;28;20545;-82
2021/05/11 00:56:13;;;;;;;35.30;32.67;;;;;;;;;;5026328;28;20532;-83
2021/05/11 00:58:40;;;;;;;34.80;31.90;;;;;;;;;;5006111;28;20476;-82
2021/05/11 01:01:08;;;;;;;35.80;33.20;;;;;;;;;;5029857;28;20449;-83
2021/05/11 01:03:39;;;;;;;36.80;33.93;;;;;;;;;;5023537;28;20458;-82
2021/05/11 01:06:06;;;;;;;37.73;34.77;;;;;;;;;;5023213;28;20453;-82
2021/05/11 01:11:02;;;;;;;36.10;33.20;;;;;;;;;;5021860;28;20477;-82
2021/05/11 01:16:07;;;;;;;34.30;31.80;;;;;;;;;;5118684;22;20474;-82
2021/05/11 01:18:46;;;;;;;36.20;32.80;;;;;;;;;;5026858;28;20451;-82
2021/05/11 01:21:34;;;;;;;37.63;34.43;;;;;;;;;;5026240;28;20418;-82
2021/05/11 01:24:06;;;;;;;34.70;32.20;;;;;;;;;;5025930;28;20845;-83
2021/05/11 01:26:42;;;;;;;35.03;32.43;;;;;;;;;;5022163;28;20504;-82
2021/05/11 01:29:19;;;;;;;37.57;34.63;;;;;;;;;;5019378;28;20469;-82
2021/05/11 01:48:24;;;;;;;39.47;36.17;;;;;;;;;;5022788;28;20406;-82
2021/05/11 01:50:58;;;;;;;37.53;34.70;;;;;;;;;;5024172;28;20416;-82
2021/05/11 01:56:27;;;;;;;36.33;33.53;;;;;;;;;;5022199;28;20418;-82
2021/05/11 02:23:42;;;;;;;42.13;38.60;;;;;;;;;;5016680;28;21023;-82
2021/05/11 02:26:09;;;;;;;39.03;35.83;;;;;;;;;;5021496;28;20470;-82
2021/05/11 02:28:38;;;;;;;38.93;35.83;;;;;;;;;;5023502;28;20438;-82
2021/05/11 02:31:08;;;;;;;41.57;38.07;;;;;;;;;;5018728;28;20438;-82
2021/05/11 02:33:34;;;;;;;42.03;38.57;;;;;;;;;;5017089;28;20423;-81
2021/05/11 02:36:01;;;;;;;38.97;35.87;;;;;;;;;;5015786;28;20435;-82
2021/05/11 02:38:28;;;;;;;36.50;33.77;;;;;;;;;;5015499;28;20431;-82
2021/05/11 02:40:56;;;;;;;35.17;32.20;;;;;;;;;;5014685;28;20432;-82
2021/05/11 02:43:26;;;;;;;31.93;29.50;;;;;;;;;;5018305;28;20576;-82
2021/05/11 02:45:54;;;;;;;34.07;31.67;;;;;;;;;;5015094;28;20428;-82
2021/05/11 02:48:21;;;;;;;37.20;34.00;;;;;;;;;;5014892;28;20446;-82
2021/05/11 02:50:47;;;;;;;35.77;32.77;;;;;;;;;;5014929;28;20894;-82
2021/05/11 02:53:14;;;;;;;35.87;33.07;;;;;;;;;;5015721;28;20442;-82
2021/05/11 02:55:42;;;;;;;36.47;33.50;;;;;;;;;;5015087;28;20749;-82
2021/05/11 02:58:13;;;;;;;35.33;32.63;;;;;;;;;;5017497;28;20439;-82
2021/05/11 03:00:41;;;;;;;34.40;31.50;;;;;;;;;;5016100;28;20486;-82
2021/05/11 03:03:10;;;;;;;34.00;31.40;;;;;;;;;;4998342;28;20536;-83
2021/05/11 03:05:37;;;;;;;32.43;29.90;;;;;;;;;;5016152;28;20420;-82
2021/05/11 03:08:04;;;;;;;30.43;28.27;;;;;;;;;;5015420;28;20450;-83
2021/05/11 03:10:31;;;;;;;30.40;28.20;;;;;;;;;;5017626;28;20424;-82
2021/05/11 03:12:57;;;;;;;29.30;27.10;;;;;;;;;;5021639;28;20425;-82
2021/05/11 03:15:24;;;;;;;27.70;25.80;;;;;;;;;;5017258;28;20539;-82
2021/05/11 03:17:51;;;;;;;28.87;26.77;;;;;;;;;;5018096;28;20453;-82
2021/05/11 03:20:19;;;;;;;28.50;26.50;;;;;;;;;;5017415;28;20492;-82
2021/05/11 03:22:46;;;;;;;29.80;27.63;;;;;;;;;;5018145;28;20423;-82
2021/05/11 03:25:13;;;;;;;30.40;28.13;;;;;;;;;;5017642;28;20834;-82
2021/05/11 03:27:40;;;;;;;30.70;28.30;;;;;;;;;;5017344;28;20440;-82
2021/05/11 03:30:08;;;;;;;31.13;28.83;;;;;;;;;;5018923;28;20447;-82
2021/05/11 03:32:35;;;;;;;32.20;29.80;;;;;;;;;;5017205;28;20411;-82
2021/05/11 03:35:04;;;;;;;30.50;28.20;;;;;;;;;;4999905;28;20416;-82
2021/05/11 03:37:31;;;;;;;32.40;30.17;;;;;;;;;;5017398;28;20442;-82
2021/05/11 03:39:58;;;;;;;33.07;30.47;;;;;;;;;;5022152;28;20486;-82
2021/05/11 03:42:28;;;;;;;30.30;28.10;;;;;;;;;;5017019;28;20408;-82
2021/05/11 03:44:57;;;;;;;34.70;31.80;;;;;;;;;;5017106;28;20437;-82
2021/05/11 03:47:28;;;;;;;34.70;31.67;;;;;;;;;;5016621;28;20795;-82
2021/05/11 03:49:56;;;;;;;33.87;31.17;;;;;;;;;;5017378;28;20408;-82
2021/05/11 03:52:23;;;;;;;38.50;35.00;;;;;;;;;;5017027;28;20409;-82
2021/05/11 03:54:51;;;;;;;35.83;32.80;;;;;;;;;;5017081;28;20446;-82
2021/05/11 03:57:18;;;;;;;39.30;35.80;;;;;;;;;;5017076;28;20412;-82
2021/05/11 03:59:45;;;;;;;37.07;33.57;;;;;;;;;;5016631;28;20451;-82
2021/05/11 04:02:12;;;;;;;34.57;31.60;;;;;;;;;;5018889;28;20441;-82
2021/05/11 04:04:40;;;;;;;32.87;30.47;;;;;;;;;;5000114;28;20427;-82
2021/05/11 04:07:07;;;;;;;33.57;30.83;;;;;;;;;;5018084;28;20445;-82
2021/05/11 04:09:37;;;;;;;33.97;31.27;;;;;;;;;;5017744;28;20809;-82
2021/05/11 04:17:25;;;;;;;34.20;31.40;;;;;;;;;;5020073;28;20429;-82
2021/05/11 04:19:52;;;;;;;35.63;32.43;;;;;;;;;;5027341;28;20997;-82
2021/05/11 04:22:19;;;;;;;35.10;32.10;;;;;;;;;;5021983;28;20448;-82
2021/05/11 04:24:46;;;;;;;34.77;31.97;;;;;;;;;;5018406;28;20408;-82
2021/05/11 04:27:14;;;;;;;34.70;31.70;;;;;;;;;;5017734;28;20816;-82
2021/05/11 04:29:42;;;;;;;35.53;32.60;;;;;;;;;;5021818;28;20408;-82
2021/05/11 04:32:09;;;;;;;34.63;31.73;;;;;;;;;;5001776;28;20515;-82
2021/05/11 04:34:36;;;;;;;34.90;32.13;;;;;;;;;;5021407;28;20895;-82
2021/05/11 04:37:03;;;;;;;34.27;31.47;;;;;;;;;;5018333;28;20796;-82
2021/05/11 04:39:30;;;;;;;32.93;30.23;;;;;;;;;;5018281;28;20464;-82
2021/05/11 04:41:58;;;;;;;34.80;32.00;;;;;;;;;;5018302;28;20974;-82
2021/05/11 04:44:30;;;;;;;32.73;30.10;;;;;;;;;;5017791;28;20898;-82
2021/05/11 04:47:01;;;;;;;31.63;29.20;;;;;;;;;;5017139;28;20417;-82
2021/05/11 04:49:28;;;;;;;29.77;27.67;;;;;;;;;;5016429;28;20456;-80
2021/05/11 04:51:55;;;;;;;30.37;27.97;;;;;;;;;;5016389;28;20408;-80
2021/05/11 04:54:22;;;;;;;27.90;25.90;;;;;;;;;;5016307;28;20797;-80
2021/05/11 04:56:49;;;;;;;28.33;26.20;;;;;;;;;;5017670;28;20411;-82
2021/05/11 04:59:17;;;;;;;27.30;25.40;;;;;;;;;;5019007;28;20839;-82
2021/05/11 05:01:47;;;;;;;27.93;26.00;;;;;;;;;;5017972;28;20769;-82
2021/05/11 05:04:16;;;;;;;31.07;28.53;;;;;;;;;;5015430;28;20542;-82
2021/05/11 05:06:43;;;;;;;26.97;24.87;;;;;;;;;;5015247;28;20782;-81
2021/05/11 05:09:10;;;;;;;28.63;26.63;;;;;;;;;;5015606;28;20423;-80
2021/05/11 05:11:40;;;;;;;31.30;29.00;;;;;;;;;;5015202;28;20433;-80
2021/05/11 05:14:08;;;;;;;31.10;28.60;;;;;;;;;;5014564;28;20428;-82
2021/05/11 05:16:35;;;;;;;30.33;27.73;;;;;;;;;;5014738;28;20941;-82
2021/05/11 05:19:04;;;;;;;28.60;26.50;;;;;;;;;;5014853;28;20490;-83
2021/05/11 05:21:31;;;;;;;29.10;26.90;;;;;;;;;;5015334;28;20474;-80
2021/05/11 05:24:07;;;;;;;30.83;28.50;;;;;;;;;;5014645;28;20421;-80
2021/05/11 05:26:34;;;;;;;31.53;29.13;;;;;;;;;;5014416;28;20448;-80
2021/05/11 05:29:02;;;;;;;30.00;27.80;;;;;;;;;;5014359;28;20492;-80
2021/05/11 05:31:29;;;;;;;34.30;29.80;;;;;;;;;;5014627;28;20468;-80
2021/05/11 05:33:56;;;;;;;32.43;29.73;;;;;;;;;;5013836;28;20441;-79
2021/05/11 05:36:24;;;;;;;30.80;28.50;;;;;;;;;;5014500;28;20787;-80
2021/05/11 05:38:51;;;;;;;27.97;26.07;;;;;;;;;;5014163;28;20448;-80
2021/05/11 05:41:22;;;;;;;28.43;26.33;;;;;;;;;;5014337;28;20487;-80
2021/05/11 05:43:49;;;;;;;30.00;27.97;;;;;;;;;;5015055;28;20461;-80
2021/05/11 05:46:23;;;;;;;30.87;28.57;;;;;;;;;;5022376;28;20435;-85
2021/05/11 05:48:50;;;;;;;30.23;28.13;;;;;;;;;;5027365;28;20424;-79
2021/05/11 05:51:19;;;;;;;29.67;27.67;;;;;;;;;;5014668;28;20436;-79
2021/05/11 05:53:46;;;;;;;29.10;27.10;;;;;;;;;;5013991;28;20822;-80
2021/05/11 05:56:15;;;;;;;28.60;26.40;;;;;;;;;;5014325;28;20401;-81
2021/05/11 05:58:42;;;;;;;26.97;25.10;;;;;;;;;;5014257;28;20441;-80
2021/05/11 06:01:09;;;;;;;28.80;26.80;;;;;;;;;;5014830;28;20500;-80
2021/05/11 06:03:38;;;;;;;29.80;27.50;;;;;;;;;;5014144;28;20491;-80
2021/05/11 06:06:05;;;;;;;28.90;26.93;;;;;;;;;;5013903;28;20420;-80
2021/05/11 06:08:33;;;;;;;27.73;25.67;;;;;;;;;;5013923;28;20436;-80
2021/05/11 06:11:06;;;;;;;26.23;24.53;;;;;;;;;;5014366;28;20897;-80
2021/05/11 06:13:38;;;;;;;22.00;20.70;;;;;;;;;;5015705;28;20418;-81
2021/05/11 06:18:50;;;;;;;19.20;17.93;;;;;;;;;;5015198;28;20468;-81
2021/05/11 06:21:17;;;;;;;18.93;17.93;;;;;;;;;;5015434;28;20428;-81
2021/05/11 06:23:44;;;;;;;19.03;18.00;;;;;;;;;;5015322;28;20945;-81
2021/05/11 06:26:13;;;;;;;18.27;17.23;;;;;;;;;;5015781;28;20477;-80
2021/05/11 06:28:41;;;;;;;17.80;16.90;;;;;;;;;;5015134;28;20430;-80
2021/05/11 06:31:09;;;;;;;18.30;17.43;;;;;;;;;;5015358;28;20466;-81
2021/05/11 06:33:36;;;;;;;17.73;16.93;;;;;;;;;;5015388;28;20478;-81
2021/05/11 06:36:03;;;;;;;18.17;17.27;;;;;;;;;;5015165;28;20906;-81
2021/05/11 06:38:30;;;;;;;17.50;16.63;;;;;;;;;;4997585;28;20781;-81
2021/05/11 06:40:58;;;;;;;17.23;16.43;;;;;;;;;;5015324;28;20490;-80
2021/05/11 06:43:28;;;;;;;17.67;16.70;;;;;;;;;;5019852;28;20418;-80
2021/05/11 06:48:47;;;;;;;17.60;16.77;;;;;;;;;;5017539;28;20448;-81
2021/05/11 06:54:01;;;;;;;17.27;16.37;;;;;;;;;;4987738;28;20459;-82
2021/05/11 06:56:29;;;;;;;17.60;16.70;;;;;;;;;;5017664;28;20537;-83
2021/05/11 06:58:57;;;;;;;18.27;17.17;;;;;;;;;;5017647;28;20420;-83
2021/05/11 07:01:24;;;;;;;17.40;16.60;;;;;;;;;;5017402;28;20445;-83
2021/05/11 07:03:51;;;;;;;18.97;18.07;;;;;;;;;;5017502;28;20515;-82
2021/05/11 07:06:18;;;;;;;18.47;17.43;;;;;;;;;;5017297;28;20450;-81
2021/05/11 07:08:48;;;;;;;17.70;16.90;;;;;;;;;;5005179;28;20444;-81
2021/05/11 07:11:30;;;;;;;18.80;17.90;;;;;;;;;;4997791;28;20420;-82
2021/05/11 07:13:58;;;;;;;18.20;17.30;;;;;;;;;;4998298;28;20443;-82
2021/05/11 07:16:25;;;;;;;18.00;17.10;;;;;;;;;;4997607;28;20507;-84
2021/05/11 07:18:52;;;;;;;17.40;16.40;;;;;;;;;;4998343;28;20431;-90
2021/05/11 07:21:19;;;;;;;17.37;16.47;;;;;;;;;;4999310;28;20821;-89
2021/05/11 07:23:46;;;;;;;17.60;16.80;;;;;;;;;;4982192;28;20443;-91
2021/05/11 07:26:24;;;;;;;17.20;16.40;;;;;;;;;;4999758;28;20438;-81
2021/05/11 07:29:08;;;;;;;17.80;16.80;;;;;;;;;;4997808;28;20442;-80
2021/05/11 07:31:38;;;;;;;20.60;19.50;;;;;;;;;;4999355;28;20979;-80
2021/05/11 07:34:07;;;;;;;17.57;16.67;;;;;;;;;;4999709;28;20857;-85
2021/05/11 07:36:34;;;;;;;18.07;17.17;;;;;;;;;;5000422;28;20437;-87
2021/05/11 07:39:01;;;;;;;17.73;16.83;;;;;;;;;;4999285;28;20448;-85
2021/05/11 07:41:28;;;;;;;18.10;17.10;;;;;;;;;;5000580;28;20442;-81
2021/05/11 07:43:57;;;;;;;17.70;16.90;;;;;;;;;;4998993;28;20412;-87
2021/05/11 07:46:36;;;;;;;18.53;17.63;;;;;;;;;;4999069;28;20648;-88
2021/05/11 07:49:42;;;;;;;18.97;17.97;;;;;;;;;;4996915;28;20873;-82
2021/05/11 08:09:46;;;;;;;18.27;17.27;;;;;;;;;;4913901;29;20424;-90
2021/05/11 08:15:03;;;;;;;18.40;17.50;;;;;;;;;;4882515;29;20506;-86
2021/05/11 08:17:32;;;;;;;17.60;16.60;;;;;;;;;;4883038;29;20446;-93
2021/05/11 08:20:30;;;;;;;18.00;17.10;;;;;;;;;;4883787;29;20490;-91
2021/05/11 08:23:19;;;;;;;17.40;16.50;;;;;;;;;;4881460;29;20427;-79
2021/05/11 08:28:31;;;;;;;18.07;17.07;;;;;;;;;;4919046;29;20418;-82
2021/05/11 08:30:58;;;;;;;18.93;17.90;;;;;;;;;;4919145;29;20447;-84
2021/05/11 08:33:25;;;;;;;17.57;16.60;;;;;;;;;;4903080;29;20443;-85
2021/05/11 08:35:53;;;;;;;18.67;17.77;;;;;;;;;;4887038;29;20878;-81
2021/05/11 08:38:21;;;;;;;18.40;17.50;;;;;;;;;;4920089;29;20845;-88
2021/05/11 08:40:47;;;;;;;17.90;17.00;;;;;;;;;;4921184;29;20498;-83
2021/05/11 08:43:33;;;;;;;18.83;17.90;;;;;;;;;;4928270;29;20421;-89
2021/05/11 08:49:01;;;;;;;18.97;17.97;;;;;;;;;;5009967;28;20429;-81
2021/05/11 08:51:32;;;;;;;18.93;17.93;;;;;;;;;;5007306;28;20428;-82
2021/05/11 08:54:22;;;;;;;19.03;18.03;;;;;;;;;;5010398;28;20465;-83
2021/05/11 09:08:29;;;;;;;19.17;18.27;;;;;;;;;;5018331;28;20476;-83
2021/05/11 09:14:39;;;;;;;20.20;19.20;;;;;;;;;;5028425;28;20436;-82
2021/05/11 09:25:40;;;;;;;19.73;18.63;;;;;;;;;;5031729;28;20931;-82
2021/05/11 09:28:33;;;;;;;19.50;18.50;;;;;;;;;;5031308;28;20449;-81
2021/05/11 09:31:18;;;;;;;19.47;18.37;;;;;;;;;;5032133;28;20468;-82
2021/05/11 09:33:52;;;;;;;18.83;17.83;;;;;;;;;;5032709;28;20425;-82
2021/05/11 10:41:48;;;;;;;21.20;20.10;;;;;;;;;;4906786;29;20577;-79
2021/05/11 10:47:03;;;;;;;21.00;19.93;;;;;;;;;;4899635;29;20449;-79
2021/05/11 10:49:31;;;;;;;21.43;20.20;;;;;;;;;;4904828;29;20474;-92
2021/05/11 10:52:08;;;;;;;22.87;21.57;;;;;;;;;;4904649;29;20425;-90
2021/05/11 10:54:36;;;;;;;20.17;19.17;;;;;;;;;;4904800;29;20450;-92
2021/05/11 10:57:07;;;;;;;21.20;20.10;;;;;;;;;;4888338;29;20875;-78
2021/05/11 10:59:50;;;;;;;21.13;20.03;;;;;;;;;;4902855;29;20471;-78
2021/05/11 11:02:38;;;;;;;21.27;20.07;;;;;;;;;;4902841;29;20506;-78
2021/05/11 11:05:05;;;;;;;21.27;20.17;;;;;;;;;;4903386;29;20462;-92
2021/05/11 11:07:37;;;;;;;21.57;20.47;;;;;;;;;;4905257;29;20426;-90
2021/05/11 11:10:06;;;;;;;20.93;19.93;;;;;;;;;;4913635;29;20450;-92
2021/05/11 11:12:35;;;;;;;21.73;20.50;;;;;;;;;;4985471;28;20502;-90
2021/05/11 11:15:10;;;;;;;21.63;20.50;;;;;;;;;;5002852;28;20425;-91
2021/05/11 11:17:41;;;;;;;21.50;20.40;;;;;;;;;;5001445;28;20413;-92
2021/05/11 11:20:11;;;;;;;21.83;20.70;;;;;;;;;;4984824;28;20522;-92
2021/05/11 11:25:25;;;;;;;24.40;23.00;;;;;;;;;;5008704;28;20461;-88
2021/05/11 11:27:52;;;;;;;22.93;21.57;;;;;;;;;;5007867;28;20437;-86
2021/05/11 11:30:19;;;;;;;23.20;22.00;;;;;;;;;;5001323;28;20446;-87
2021/05/11 11:32:47;;;;;;;24.07;22.57;;;;;;;;;;5005266;28;20433;-89
2021/05/11 11:35:14;;;;;;;24.00;22.70;;;;;;;;;;5004677;28;20424;-94
2021/05/11 11:37:42;;;;;;;25.17;23.77;;;;;;;;;;5005654;28;20797;-88
2021/05/11 11:40:10;;;;;;;24.57;23.17;;;;;;;;;;5003158;28;20480;-82
2021/05/11 11:42:40;;;;;;;25.27;23.40;;;;;;;;;;5001614;28;20419;-80
2021/05/11 11:45:08;;;;;;;26.33;24.63;;;;;;;;;;5003822;28;20435;-79
2021/05/11 11:47:42;;;;;;;24.30;22.90;;;;;;;;;;5001741;28;20519;-78
2021/05/11 11:50:10;;;;;;;25.87;24.00;;;;;;;;;;5001452;28;20529;-77
2021/05/11 11:52:40;;;;;;;27.47;25.87;;;;;;;;;;5001693;28;20475;-78
2021/05/11 11:55:24;;;;;;;25.77;24.27;;;;;;;;;;5002175;28;20452;-79
2021/05/11 11:57:54;;;;;;;24.97;23.27;;;;;;;;;;5002703;28;20552;-78
2021/05/11 12:00:22;;;;;;;25.40;23.90;;;;;;;;;;4983793;28;20494;-79
2021/05/11 12:02:53;;;;;;;23.93;22.50;;;;;;;;;;5004417;28;20493;-87
2021/05/11 12:05:20;;;;;;;25.53;24.03;;;;;;;;;;5007323;28;20415;-86
2021/05/11 12:07:59;;;;;;;24.83;23.33;;;;;;;;;;4986710;28;20528;-92
2021/05/11 12:10:27;;;;;;;25.53;24.03;;;;;;;;;;4999853;28;20443;-80
2021/05/11 12:12:55;;;;;;;24.57;23.07;;;;;;;;;;5000007;28;20808;-79
2021/05/11 12:15:23;;;;;;;24.90;23.30;;;;;;;;;;4983804;28;20447;-80
2021/05/11 12:18:01;;;;;;;24.87;23.37;;;;;;;;;;5005747;28;20438;-95
2021/05/11 12:20:30;;;;;;;24.90;23.40;;;;;;;;;;5011889;28;20577;-94
2021/05/11 12:23:04;;;;;;;25.33;23.83;;;;;;;;;;5008549;28;20469;-95
2021/05/11 12:25:34;;;;;;;25.63;24.03;;;;;;;;;;5007501;28;20497;-95
2021/05/11 12:28:01;;;;;;;25.40;23.83;;;;;;;;;;5005701;28;20437;-94
2021/05/11 12:30:39;;;;;;;24.67;23.17;;;;;;;;;;5006013;28;20467;-94
2021/05/11 12:33:07;;;;;;;23.87;22.47;;;;;;;;;;5004832;28;20428;-94
2021/05/11 12:35:34;;;;;;;24.13;22.63;;;;;;;;;;5004477;28;20455;-80
2021/05/11 12:38:04;;;;;;;25.53;24.03;;;;;;;;;;5008683;28;20466;-79
2021/05/11 12:40:49;;;;;;;23.93;22.50;;;;;;;;;;5004610;28;20554;-79
2021/05/11 12:43:16;;;;;;;24.73;23.33;;;;;;;;;;4997618;28;20457;-78
2021/05/11 12:45:50;;;;;;;25.23;23.73;;;;;;;;;;4997564;28;20771;-79
2021/05/11 12:48:16;;;;;;;26.00;24.40;;;;;;;;;;4997083;28;20411;-79
2021/05/11 12:50:44;;;;;;;25.93;24.13;;;;;;;;;;4999591;28;20940;-95
2021/05/11 12:53:27;;;;;;;25.67;24.17;;;;;;;;;;4984705;28;20473;-95
2021/05/11 12:56:16;;;;;;;27.10;25.30;;;;;;;;;;4997942;28;20465;-91
2021/05/11 12:58:58;;;;;;;26.43;24.73;;;;;;;;;;5002361;28;20429;-90
2021/05/11 13:01:26;;;;;;;28.50;26.60;;;;;;;;;;4984670;28;20549;-92
2021/05/11 13:04:14;;;;;;;27.97;25.83;;;;;;;;;;5001710;28;20861;-91
2021/05/11 13:09:38;;;;;;;27.50;25.90;;;;;;;;;;4997835;28;20439;-79
2021/05/11 13:15:08;;;;;;;28.33;26.20;;;;;;;;;;4998461;28;20430;-77
2021/05/11 13:20:54;;;;;;;28.70;26.80;;;;;;;;;;4999093;28;20533;-80
2021/05/11 13:25:06;;;;;;;27.93;26.13;;;;;;;;;;4999658;28;20449;-81
2021/05/11 13:26:12;;;;;;;27.83;25.93;;;;;;;;;;4997942;28;20496;-81
2021/05/11 13:28:54;;;;;;;28.03;26.13;;;;;;;;;;4997439;28;20418;-82
2021/05/11 13:31:26;;;;;;;28.17;26.33;;;;;;;;;;4997614;28;20458;-81
2021/05/11 13:33:59;;;;;;;28.63;26.83;;;;;;;;;;5000294;28;20825;-81
2021/05/11 13:36:26;;;;;;;26.93;25.27;;;;;;;;;;5000184;28;20443;-82
2021/05/11 13:38:54;;;;;;;27.50;25.67;;;;;;;;;;4997815;28;20455;-82
2021/05/11 13:41:21;;;;;;;26.13;24.50;;;;;;;;;;4996819;28;20493;-83
2021/05/11 13:43:49;;;;;;;27.43;25.70;;;;;;;;;;4998283;28;20563;-89
2021/05/11 13:46:16;;;;;;;26.17;24.57;;;;;;;;;;4998899;28;20413;-87
2021/05/11 13:48:46;;;;;;;28.00;26.13;;;;;;;;;;4997747;28;20419;-84
2021/05/11 13:51:15;;;;;;;27.53;25.90;;;;;;;;;;5003397;28;20927;-80
2021/05/11 13:53:46;;;;;;;26.40;24.80;;;;;;;;;;4999798;28;20501;-83
2021/05/11 14:04:32;;;;;;;27.20;25.50;;;;;;;;;;4999293;28;20413;-81
2021/05/11 14:06:59;;;;;;;26.90;25.30;;;;;;;;;;4984071;28;20504;-81
2021/05/11 14:09:26;;;;;;;25.97;24.27;;;;;;;;;;5004407;28;20475;-81
2021/05/11 14:11:53;;;;;;;25.53;23.93;;;;;;;;;;4980663;28;20836;-82
2021/05/11 14:14:21;;;;;;;29.10;27.07;;;;;;;;;;4999068;28;20429;-80
2021/05/11 14:16:48;;;;;;;27.53;25.90;;;;;;;;;;4986185;28;20407;-81
2021/05/11 14:19:15;;;;;;;26.73;25.23;;;;;;;;;;4980346;28;20784;-82
2021/05/11 14:21:42;;;;;;;27.00;25.40;;;;;;;;;;5001099;28;20502;-81
2021/05/11 14:26:45;;;;;;;27.40;25.70;;;;;;;;;;5026806;23;20499;-83
2021/05/11 14:29:14;;;;;;;27.27;25.57;;;;;;;;;;5017999;28;20427;-81
2021/05/11 14:31:42;;;;;;;26.60;25.00;;;;;;;;;;5021714;28;20485;-82
2021/05/11 14:34:09;;;;;;;26.80;25.20;;;;;;;;;;5017533;28;20420;-81
2021/05/11 14:36:40;;;;;;;25.67;24.07;;;;;;;;;;5025229;28;20415;-81
2021/05/11 14:39:08;;;;;;;26.77;24.97;;;;;;;;;;5027158;28;20918;-82
2021/05/11 14:41:35;;;;;;;26.70;25.00;;;;;;;;;;5027385;28;20454;-83
2021/05/11 14:44:03;;;;;;;27.03;25.43;;;;;;;;;;5139966;22;20461;-81
2021/05/11 14:46:31;;;;;;;27.70;25.90;;;;;;;;;;5076116;23;20478;-82
2021/05/11 14:48:59;;;;;;;26.93;25.33;;;;;;;;;;5035056;28;20433;-82
2021/05/11 14:51:26;;;;;;;27.27;25.63;;;;;;;;;;5031948;28;20819;-82
2021/05/11 14:53:52;;;;;;;28.00;26.20;;;;;;;;;;5027341;28;20452;-82
2021/05/11 14:56:19;;;;;;;26.90;25.17;;;;;;;;;;5027016;28;20429;-82
2021/05/11 14:58:46;;;;;;;26.87;25.27;;;;;;;;;;5029643;28;20426;-84
2021/05/11 15:06:21;;;;;;;27.13;25.30;;;;;;;;;;5053661;28;20487;-83
2021/05/11 15:08:48;;;;;;;27.73;25.93;;;;;;;;;;5058765;28;20450;-83
2021/05/11 15:11:15;;;;;;;29.30;26.70;;;;;;;;;;5058435;28;20411;-83
2021/05/11 15:13:46;;;;;;;29.37;27.37;;;;;;;;;;5053640;28;20455;-82
2021/05/11 15:16:19;;;;;;;29.47;27.60;;;;;;;;;;5051958;28;20516;-84
2021/05/11 15:18:46;;;;;;;27.73;25.93;;;;;;;;;;5052378;28;20437;-84
2021/05/11 15:21:13;;;;;;;29.03;27.23;;;;;;;;;;5055301;28;20484;-83
2021/05/11 15:23:42;;;;;;;33.20;30.57;;;;;;;;;;5056146;28;20529;-84
2021/05/11 15:26:09;;;;;;;29.47;27.60;;;;;;;;;;5071950;28;20429;-84
2021/05/11 15:28:37;;;;;;;28.47;26.67;;;;;;;;;;5070615;28;20458;-81
2021/05/11 15:31:04;;;;;;;30.37;28.43;;;;;;;;;;5071821;28;20415;-84
2021/05/11 15:33:31;;;;;;;30.00;28.00;;;;;;;;;;5070589;28;20415;-84
2021/05/11 15:35:58;;;;;;;31.00;28.90;;;;;;;;;;5071137;28;20477;-84
2021/05/11 15:38:28;;;;;;;30.33;28.23;;;;;;;;;;5070734;28;20454;-83
2021/05/11 15:40:56;;;;;;;27.33;25.63;;;;;;;;;;5069911;28;20512;-84
2021/05/11 15:43:23;;;;;;;27.93;26.10;;;;;;;;;;5071347;28;20427;-83
2021/05/11 15:45:50;;;;;;;29.43;27.40;;;;;;;;;;5070462;28;20526;-83
2021/05/11 15:48:17;;;;;;;29.47;27.57;;;;;;;;;;5053010;28;20427;-83
2021/05/11 15:50:45;;;;;;;29.17;27.07;;;;;;;;;;5069821;28;20451;-83
2021/05/11 15:53:13;;;;;;;31.30;28.93;;;;;;;;;;5073236;28;20414;-83
2021/05/11 15:55:41;;;;;;;30.43;28.27;;;;;;;;;;5070330;28;20431;-84
2021/05/11 15:58:09;;;;;;;31.70;29.20;;;;;;;;;;5048421;28;20478;-86
2021/05/11 16:00:37;;;;;;;31.37;29.17;;;;;;;;;;5062731;28;20489;-87
2021/05/11 16:03:04;;;;;;;29.80;27.73;;;;;;;;;;5074955;28;20438;-84
2021/05/11 16:05:34;;;;;;;29.90;27.80;;;;;;;;;;5062231;28;20461;-81
2021/05/11 16:08:03;;;;;;;29.80;27.50;;;;;;;;;;5062966;28;20419;-82
2021/05/11 16:10:35;;;;;;;30.00;27.70;;;;;;;;;;5066190;28;20415;-87
2021/05/11 16:13:02;;;;;;;29.50;27.43;;;;;;;;;;5067629;28;20537;-85
2021/05/11 16:15:29;;;;;;;28.37;26.37;;;;;;;;;;5063784;28;20447;-86
2021/05/11 16:17:56;;;;;;;30.30;28.27;;;;;;;;;;5063820;28;20449;-86
2021/05/11 16:20:23;;;;;;;29.60;27.30;;;;;;;;;;5064291;28;20944;-85
2021/05/11 16:22:50;;;;;;;28.53;26.53;;;;;;;;;;5067036;28;20474;-88
2021/05/11 16:25:17;;;;;;;29.23;27.30;;;;;;;;;;5074710;22;20501;-91
2021/05/11 16:27:44;;;;;;;27.77;26.00;;;;;;;;;;5041767;28;20448;-88
2021/05/11 16:30:15;;;;;;;28.87;26.97;;;;;;;;;;5042244;28;20446;-87
2021/05/11 16:32:44;;;;;;;28.50;26.70;;;;;;;;;;5042537;28;20822;-88
2021/05/11 16:35:11;;;;;;;29.27;27.23;;;;;;;;;;5041275;28;20475;-87
2021/05/11 16:37:40;;;;;;;27.70;25.80;;;;;;;;;;5045335;28;20431;-86
2021/05/11 16:40:08;;;;;;;26.70;25.00;;;;;;;;;;5048186;28;20543;-86
2021/05/11 16:42:37;;;;;;;26.80;25.10;;;;;;;;;;5039762;28;20408;-85
2021/05/11 16:45:06;;;;;;;26.73;25.07;;;;;;;;;;5038789;28;20419;-86
2021/05/11 16:47:33;;;;;;;27.17;25.37;;;;;;;;;;5033490;28;20461;-86
2021/05/11 16:50:01;;;;;;;28.40;26.50;;;;;;;;;;5031166;28;20937;-86
2021/05/11 16:52:28;;;;;;;25.83;24.30;;;;;;;;;;5029038;28;20431;-82
2021/05/11 16:54:55;;;;;;;27.93;26.00;;;;;;;;;;5030812;28;20444;-86
2021/05/11 16:57:23;;;;;;;24.90;23.33;;;;;;;;;;5032382;28;20432;-86
2021/05/11 16:59:50;;;;;;;26.90;25.30;;;;;;;;;;5033494;28;20458;-87
2021/05/11 17:02:18;;;;;;;27.20;25.33;;;;;;;;;;5023266;28;20968;-93
2021/05/11 17:04:45;;;;;;;26.57;25.07;;;;;;;;;;5025544;28;20430;-95
2021/05/11 17:07:15;;;;;;;25.97;24.03;;;;;;;;;;5039010;28;20835;-95
2021/05/11 17:09:42;;;;;;;26.57;24.97;;;;;;;;;;5015828;28;20440;-96
2021/05/11 17:12:11;;;;;;;28.00;25.87;;;;;;;;;;5035988;28;20426;-95
2021/05/11 17:14:39;;;;;;;28.80;26.77;;;;;;;;;;5041371;28;20456;-96
2021/05/11 17:17:06;;;;;;;29.23;27.27;;;;;;;;;;5047199;28;20427;-95
2021/05/11 17:19:33;;;;;;;28.67;26.70;;;;;;;;;;5046552;28;20423;-96
2021/05/11 17:22:01;;;;;;;27.67;25.93;;;;;;;;;;5040858;28;20492;-96
2021/05/11 17:24:29;;;;;;;28.50;26.43;;;;;;;;;;5087885;22;20485;-92
2021/05/11 17:26:56;;;;;;;29.20;27.30;;;;;;;;;;5023798;28;20408;-96
2021/05/11 17:29:26;;;;;;;28.80;27.00;;;;;;;;;;5019969;28;20440;-91
2021/05/11 17:31:53;;;;;;;28.63;26.77;;;;;;;;;;5014017;28;20440;-94
2021/05/11 17:34:20;;;;;;;28.40;26.50;;;;;;;;;;5019755;28;20434;-94
2021/05/11 17:36:47;;;;;;;29.17;27.37;;;;;;;;;;5021221;28;20452;-96
2021/05/11 17:39:14;;;;;;;27.57;25.73;;;;;;;;;;5027518;28;20438;-96
2021/05/11 17:41:41;;;;;;;27.90;26.20;;;;;;;;;;5030033;28;20474;-91
2021/05/11 17:44:08;;;;;;;27.80;25.83;;;;;;;;;;5033095;28;20435;-94
2021/05/11 17:46:35;;;;;;;26.67;25.00;;;;;;;;;;5031292;28;20512;-82
2021/05/11 17:49:02;;;;;;;27.70;25.77;;;;;;;;;;5026921;28;20479;-87
2021/05/11 17:51:29;;;;;;;27.80;25.90;;;;;;;;;;5021872;28;20432;-90
2021/05/11 17:53:57;;;;;;;25.93;24.43;;;;;;;;;;5018649;28;20424;-90
2021/05/11 17:56:29;;;;;;;27.17;25.50;;;;;;;;;;5003203;28;20455;-93
2021/05/11 17:58:57;;;;;;;27.50;25.80;;;;;;;;;;5020439;28;20457;-90